createdAt,value
2017-07-28T00:00:15.216Z,999.15
2017-07-28T00:01:11.872Z,999.14
2017-07-28T00:02:08.255Z,999.11
2017-07-28T00:03:04.615Z,999.06
2017-07-28T00:04:00.903Z,999.09
2017-07-28T00:04:57.216Z,999.15
2017-07-28T00:05:53.732Z,999.04
2017-07-28T00:06:50.898Z,999.14
2017-07-28T00:07:48.118Z,999.17
2017-07-28T00:08:44.543Z,999.21
2017-07-28T00:09:40.824Z,999.20
2017-07-28T00:10:38.084Z,999.21
2017-07-28T00:11:34.415Z,999.19
2017-07-28T00:12:31.639Z,999.22
2017-07-28T00:13:28.259Z,999.20
2017-07-28T00:14:24.676Z,999.27
2017-07-28T00:15:21.018Z,999.30
2017-07-28T00:16:17.296Z,999.29
2017-07-28T00:17:14.519Z,999.28
2017-07-28T00:18:10.923Z,999.30
2017-07-28T00:19:07.375Z,999.34
2017-07-28T00:20:03.794Z,999.34
2017-07-28T00:21:00.116Z,999.32
2017-07-28T00:21:57.455Z,999.35
2017-07-28T00:22:54.779Z,999.29
2017-07-28T00:23:52.575Z,999.28
2017-07-28T00:24:49.027Z,999.33
2017-07-28T00:25:46.616Z,999.31
2017-07-28T00:26:43.977Z,999.34
2017-07-28T00:27:44.888Z,999.36
2017-07-28T00:37:52.731Z,999.47
2017-07-28T00:38:49.163Z,999.48
2017-07-28T00:39:45.506Z,999.49
2017-07-28T00:40:41.827Z,999.48
2017-07-28T00:41:38.147Z,999.61
2017-07-28T00:42:34.485Z,999.59
2017-07-28T00:43:31.738Z,999.64
2017-07-28T00:44:28.060Z,999.64
2017-07-28T00:45:25.219Z,999.59
2017-07-28T00:46:22.492Z,999.63
2017-07-28T00:47:19.916Z,999.64
2017-07-28T00:48:16.419Z,999.63
2017-07-28T00:49:12.723Z,999.66
2017-07-28T00:50:09.096Z,999.67
2017-07-28T00:51:07.415Z,999.65
2017-07-28T00:52:03.756Z,999.59
2017-07-28T00:53:00.040Z,999.66
2017-07-28T01:14:58.130Z,999.73
2017-07-28T01:15:54.427Z,999.84
2017-07-28T01:16:50.840Z,999.82
2017-07-28T01:17:47.327Z,999.86
2017-07-28T01:18:43.599Z,999.85
2017-07-28T01:19:41.116Z,999.84
2017-07-28T01:20:37.683Z,999.82
2017-07-28T01:21:33.984Z,999.79
2017-07-28T01:22:30.366Z,999.85
2017-07-28T01:23:40.778Z,999.82
2017-07-28T01:24:37.087Z,999.81
2017-07-28T01:25:33.827Z,999.78
2017-07-28T01:26:30.279Z,999.90
2017-07-28T01:27:26.628Z,999.86
2017-07-28T01:28:23.052Z,999.83
2017-07-28T01:29:19.416Z,1000.00
2017-07-28T01:30:15.787Z,999.90
2017-07-28T01:31:12.120Z,999.89
2017-07-28T01:32:08.731Z,999.92
2017-07-28T01:33:05.051Z,999.94
2017-07-28T01:34:03.476Z,999.96
2017-07-28T01:34:59.851Z,999.92
2017-07-28T01:35:56.174Z,999.95
2017-07-28T01:36:52.466Z,999.93
2017-07-28T01:37:48.899Z,999.93
2017-07-28T01:38:46.226Z,999.90
2017-07-28T01:39:42.541Z,999.91
2017-07-28T01:40:38.902Z,999.87
2017-07-28T01:41:40.263Z,999.91
2017-07-28T01:46:06.784Z,999.95
2017-07-28T01:47:04.046Z,999.88
2017-07-28T01:48:00.512Z,1000.01
2017-07-28T01:48:57.900Z,1000.00
2017-07-28T01:49:54.468Z,999.97
2017-07-28T01:50:52.849Z,999.96
2017-07-28T01:51:50.284Z,999.96
2017-07-28T01:52:47.756Z,999.95
2017-07-28T01:53:44.336Z,1000.03
2017-07-28T01:54:41.734Z,1000.10
2017-07-28T01:55:38.042Z,1000.14
2017-07-28T01:56:34.486Z,1000.05
2017-07-28T01:57:31.663Z,1000.02
2017-07-28T01:58:28.038Z,1000.06
2017-07-28T01:59:24.487Z,1000.06
2017-07-28T02:00:21.047Z,1000.13
2017-07-28T02:01:17.468Z,1000.09
2017-07-28T02:02:14.148Z,1000.09
2017-07-28T02:03:10.443Z,1000.13
2017-07-28T02:04:06.795Z,1000.16
2017-07-28T02:05:03.115Z,1000.26
2017-07-28T02:07:10.415Z,1000.28
2017-07-28T02:08:07.731Z,1000.35
2017-07-28T02:09:05.058Z,1000.38
2017-07-28T02:10:01.416Z,1000.41
2017-07-28T02:10:58.645Z,1000.32
2017-07-28T02:11:59.129Z,1000.34
2017-07-28T02:12:56.579Z,1000.38
2017-07-28T02:13:54.191Z,1000.42
2017-07-28T02:14:50.607Z,1000.40
2017-07-28T02:17:03.379Z,1000.46
2017-07-28T02:18:00.748Z,1000.40
2017-07-28T02:18:57.163Z,1000.37
2017-07-28T02:21:11.507Z,1000.49
2017-07-28T02:22:12.041Z,1000.38
2017-07-28T02:23:11.271Z,1000.40
2017-07-28T02:24:09.743Z,1000.41
2017-07-28T02:25:06.182Z,1000.44
2017-07-28T02:27:13.451Z,1000.56
2017-07-28T02:28:10.821Z,1000.55
2017-07-28T02:29:09.142Z,1000.52
2017-07-28T02:30:08.702Z,1000.55
2017-07-28T02:31:06.627Z,1000.57
2017-07-28T02:32:03.952Z,1000.58
2017-07-28T02:33:00.426Z,1000.70
2017-07-28T02:33:57.955Z,1000.61
2017-07-28T02:34:54.375Z,1000.65
2017-07-28T02:35:56.792Z,1000.78
2017-07-28T02:36:53.265Z,1000.70
2017-07-28T02:37:51.591Z,1000.76
2017-07-28T02:38:48.016Z,1000.72
2017-07-28T02:39:45.404Z,1000.70
2017-07-28T02:40:42.235Z,1000.74
2017-07-28T02:41:38.584Z,1000.87
2017-07-28T02:42:35.143Z,1000.77
2017-07-28T02:43:31.888Z,1000.89
2017-07-28T02:44:28.325Z,1000.85
2017-07-28T02:45:26.299Z,1000.88
2017-07-28T02:46:27.424Z,1000.88
2017-07-28T02:47:24.728Z,1000.82
2017-07-28T02:48:21.316Z,1000.89
2017-07-28T02:49:18.039Z,1000.85
2017-07-28T02:50:14.712Z,1000.88
2017-07-28T02:51:11.044Z,1000.84
2017-07-28T02:52:07.428Z,1000.90
2017-07-28T02:53:05.600Z,1000.89
2017-07-28T02:54:03.972Z,1000.81
2017-07-28T02:55:00.583Z,1000.96
2017-07-28T02:55:58.917Z,1000.95
2017-07-28T02:56:55.703Z,1000.91
2017-07-28T02:57:53.540Z,1000.87
2017-07-28T02:58:50.899Z,1000.82
2017-07-28T02:59:48.141Z,1000.92
2017-07-28T03:00:46.434Z,1000.95
2017-07-28T03:01:43.368Z,1000.95
2017-07-28T03:07:20.356Z,1001.03
2017-07-28T03:08:17.348Z,1001.09
2017-07-28T03:09:18.590Z,1001.10
2017-07-28T03:10:22.863Z,1001.12
2017-07-28T03:11:25.464Z,1001.12
2017-07-28T03:12:22.555Z,1001.20
2017-07-28T03:13:21.931Z,1001.12
2017-07-28T03:14:21.505Z,1001.15
2017-07-28T03:22:26.359Z,1001.16
2017-07-28T03:23:30.117Z,1001.21
2017-07-28T03:25:41.949Z,1001.20
2017-07-28T03:26:38.774Z,1001.21
2017-07-28T03:27:39.630Z,1001.25
2017-07-28T03:28:42.179Z,1001.20
2017-07-28T03:29:39.631Z,1001.10
2017-07-28T03:35:44.596Z,1001.32
2017-07-28T03:38:00.163Z,1001.31
2017-07-28T03:40:35.974Z,1001.40
2017-07-28T03:50:24.264Z,1001.55
2017-07-28T03:58:40.936Z,1001.57
2017-07-28T04:09:43.834Z,1001.75
2017-07-28T04:11:05.704Z,1001.83
2017-07-28T04:50:39.502Z,1002.33
2017-07-28T04:51:49.199Z,1002.34
2017-07-28T04:52:51.160Z,1002.34
2017-07-28T05:01:18.652Z,1002.35
2017-07-28T05:02:21.592Z,1002.25
2017-07-28T05:10:59.801Z,1002.37
2017-07-28T05:11:58.168Z,1002.42
2017-07-28T05:14:11.520Z,1002.43
2017-07-28T05:27:11.152Z,1002.43
2017-07-28T05:37:03.851Z,1002.52
2017-07-28T05:40:42.263Z,1002.54
2017-07-28T05:50:25.703Z,1002.69
2017-07-28T05:56:38.474Z,1002.66
2017-07-28T06:03:56.865Z,1002.83
2017-07-28T06:04:58.660Z,1002.81
2017-07-28T06:13:37.750Z,1003.07
2017-07-28T06:14:35.611Z,1003.09
2017-07-28T06:15:38.471Z,1003.03
2017-07-28T06:19:03.840Z,1003.00
2017-07-28T06:26:25.587Z,1002.97
2017-07-28T06:31:14.116Z,1003.10
2017-07-28T06:44:42.276Z,1003.14
2017-07-28T06:48:06.899Z,1003.21
2017-07-28T06:49:05.492Z,1003.35
2017-07-28T06:51:27.121Z,1003.33
2017-07-28T06:52:23.939Z,1003.29
2017-07-28T06:53:26.260Z,1003.25
2017-07-28T06:55:34.065Z,1003.32
2017-07-28T06:56:31.609Z,1003.29
2017-07-28T06:57:28.310Z,1003.35
2017-07-28T06:58:25.333Z,1003.38
2017-07-28T07:00:42.298Z,1003.29
2017-07-28T07:01:39.270Z,1003.22
2017-07-28T07:02:36.023Z,1003.27
2017-07-28T07:03:32.978Z,1003.26
2017-07-28T07:04:31.399Z,1003.21
2017-07-28T07:05:29.865Z,1003.18
2017-07-28T07:06:27.291Z,1003.12
2017-07-28T07:07:23.572Z,1003.22
2017-07-28T07:08:19.834Z,1003.20
2017-07-28T07:09:16.087Z,1003.18
2017-07-28T07:10:12.329Z,1003.16
2017-07-28T07:11:08.590Z,1003.17
2017-07-28T07:12:04.888Z,1003.21
2017-07-28T07:13:01.150Z,1003.20
2017-07-28T07:13:57.405Z,1003.26
2017-07-28T07:14:53.650Z,1003.19
2017-07-28T07:15:49.889Z,1003.31
2017-07-28T07:16:46.127Z,1003.29
2017-07-28T07:17:42.378Z,1003.39
2017-07-28T07:18:38.639Z,1003.46
2017-07-28T07:19:34.881Z,1003.37
2017-07-28T07:20:31.134Z,1003.41
2017-07-28T07:21:27.392Z,1003.37
2017-07-28T07:22:23.639Z,1003.35
2017-07-28T07:23:19.894Z,1003.55
2017-07-28T07:24:16.151Z,1003.49
2017-07-28T07:25:12.408Z,1003.58
2017-07-28T07:27:12.943Z,1003.58
2017-07-28T07:28:09.351Z,1003.52
2017-07-28T07:29:05.623Z,1003.59
2017-07-28T07:30:01.866Z,1003.55
2017-07-28T07:30:58.114Z,1003.68
2017-07-28T07:31:54.370Z,1003.53
2017-07-28T07:32:50.622Z,1003.54
2017-07-28T07:33:46.886Z,1003.51
2017-07-28T07:34:44.040Z,1003.45
2017-07-28T07:35:40.279Z,1003.46
2017-07-28T07:36:36.538Z,1003.46
2017-07-28T07:37:32.786Z,1003.44
2017-07-28T07:38:29.066Z,1003.41
2017-07-28T07:39:25.357Z,1003.48
2017-07-28T07:40:21.589Z,1003.59
2017-07-28T07:41:17.835Z,1003.47
2017-07-28T07:42:14.079Z,1003.52
2017-07-28T07:43:10.318Z,1003.56
2017-07-28T07:44:06.571Z,1003.49
2017-07-28T07:45:02.832Z,1003.51
2017-07-28T07:45:59.087Z,1003.51
2017-07-28T07:46:55.329Z,1003.62
2017-07-28T07:47:51.584Z,1003.49
2017-07-28T07:48:47.845Z,1003.49
2017-07-28T07:49:44.081Z,1003.48
2017-07-28T07:50:40.340Z,1003.48
2017-07-28T07:51:36.590Z,1003.45
2017-07-28T07:52:32.835Z,1003.48
2017-07-28T07:53:29.099Z,1003.54
2017-07-28T07:54:25.378Z,1003.49
2017-07-28T07:55:21.642Z,1003.39
2017-07-28T07:56:17.917Z,1003.44
2017-07-28T07:57:14.522Z,1003.43
2017-07-28T07:58:10.759Z,1003.40
2017-07-28T07:59:07.020Z,1003.45
2017-07-28T08:00:03.271Z,1003.46
2017-07-28T08:00:59.514Z,1003.46
2017-07-28T08:01:55.754Z,1003.41
2017-07-28T08:02:52.006Z,1003.41
2017-07-28T08:03:48.279Z,1003.41
2017-07-28T08:04:44.557Z,1003.49
2017-07-28T08:05:40.808Z,1003.48
2017-07-28T08:06:37.050Z,1003.49
2017-07-28T08:07:33.305Z,1003.52
2017-07-28T08:08:29.546Z,1003.47
2017-07-28T08:09:25.807Z,1003.45
2017-07-28T08:10:22.059Z,1003.43
2017-07-28T08:11:18.302Z,1003.39
2017-07-28T08:12:14.542Z,1003.39
2017-07-28T08:13:10.797Z,1003.42
2017-07-28T08:14:07.051Z,1003.37
2017-07-28T08:15:03.317Z,1003.44
2017-07-28T08:15:59.558Z,1003.48
2017-07-28T08:16:55.809Z,1003.54
2017-07-28T08:17:52.047Z,1003.43
2017-07-28T08:18:48.291Z,1003.50
2017-07-28T08:19:44.567Z,1003.43
2017-07-28T08:20:40.810Z,1003.47
2017-07-28T08:21:37.079Z,1003.47
2017-07-28T08:22:33.322Z,1003.51
2017-07-28T08:23:29.554Z,1003.51
2017-07-28T08:24:25.794Z,1003.47
2017-07-28T08:25:22.058Z,1003.57
2017-07-28T08:26:18.286Z,1003.53
2017-07-28T08:27:14.531Z,1003.61
2017-07-28T08:28:10.778Z,1003.63
2017-07-28T08:29:07.014Z,1003.56
2017-07-28T08:30:03.284Z,1003.49
2017-07-28T08:30:59.526Z,1003.53
2017-07-28T08:31:55.763Z,1003.51
2017-07-28T08:32:52.002Z,1003.56
2017-07-28T08:33:48.234Z,1003.54
2017-07-28T08:34:44.490Z,1003.65
2017-07-28T08:35:40.741Z,1003.68
2017-07-28T08:36:36.987Z,1003.57
2017-07-28T08:37:33.230Z,1003.76
2017-07-28T08:38:29.470Z,1003.75
2017-07-28T08:39:25.938Z,1003.82
2017-07-28T08:40:22.214Z,1003.81
2017-07-28T08:41:18.459Z,1003.84
2017-07-28T08:42:14.694Z,1003.85
2017-07-28T08:43:10.923Z,1003.94
2017-07-28T08:44:08.129Z,1003.93
2017-07-28T08:45:04.371Z,1003.95
2017-07-28T08:46:00.643Z,1003.93
2017-07-28T08:46:56.885Z,1003.91
2017-07-28T08:47:53.126Z,1003.90
2017-07-28T08:48:49.358Z,1003.90
2017-07-28T08:49:45.599Z,1004.04
2017-07-28T08:50:41.862Z,1004.08
2017-07-28T08:51:38.101Z,1003.94
2017-07-28T08:52:34.330Z,1004.04
2017-07-28T08:53:30.570Z,1004.06
2017-07-28T08:54:26.814Z,1004.05
2017-07-28T08:55:23.062Z,1004.04
2017-07-28T08:56:19.322Z,1004.02
2017-07-28T08:57:15.550Z,1004.02
2017-07-28T08:58:11.782Z,1004.00
2017-07-28T08:59:08.019Z,1004.09
2017-07-28T09:00:04.272Z,1003.98
2017-07-28T09:01:00.527Z,1003.98
2017-07-28T09:01:56.776Z,1004.00
2017-07-28T09:02:53.024Z,1003.97
2017-07-28T09:03:50.165Z,1003.97
2017-07-28T09:04:46.408Z,1004.01
2017-07-28T09:05:42.638Z,1003.94
2017-07-28T09:06:38.908Z,1003.86
2017-07-28T09:07:35.163Z,1003.95
2017-07-28T09:08:31.407Z,1003.99
2017-07-28T09:09:27.662Z,1003.96
2017-07-28T09:10:23.907Z,1003.97
2017-07-28T09:11:20.157Z,1003.97
2017-07-28T09:12:16.409Z,1003.99
2017-07-28T09:13:12.658Z,1003.97
2017-07-28T09:14:08.984Z,1004.00
2017-07-28T09:15:05.200Z,1003.99
2017-07-28T09:16:03.897Z,1003.98
2017-07-28T09:17:00.174Z,1003.97
2017-07-28T09:17:56.411Z,1003.98
2017-07-28T09:18:52.653Z,1004.03
2017-07-28T09:19:48.906Z,1004.11
2017-07-28T09:20:45.146Z,1004.10
2017-07-28T09:21:41.386Z,1004.01
2017-07-28T09:22:37.619Z,1004.05
2017-07-28T09:23:33.859Z,1004.06
2017-07-28T09:24:30.133Z,1004.06
2017-07-28T09:25:26.375Z,1004.03
2017-07-28T09:26:22.645Z,1004.03
2017-07-28T09:27:18.882Z,1004.00
2017-07-28T09:28:15.130Z,1003.98
2017-07-28T09:29:11.374Z,1003.90
2017-07-28T09:30:07.630Z,1003.95
2017-07-28T09:31:03.863Z,1003.98
2017-07-28T09:32:00.861Z,1003.95
2017-07-28T09:32:57.113Z,1003.93
2017-07-28T09:33:53.358Z,1003.88
2017-07-28T09:34:49.594Z,1003.93
2017-07-28T09:35:45.822Z,1003.91
2017-07-28T09:36:42.063Z,1003.97
2017-07-28T09:37:38.376Z,1003.82
2017-07-28T09:38:34.630Z,1003.89
2017-07-28T09:39:30.871Z,1003.89
2017-07-28T09:40:27.112Z,1003.90
2017-07-28T09:41:23.351Z,1003.98
2017-07-28T09:42:19.607Z,1003.86
2017-07-28T09:43:15.842Z,1003.93
2017-07-28T09:44:12.083Z,1003.82
2017-07-28T09:45:08.335Z,1003.98
2017-07-28T09:46:04.573Z,1003.83
2017-07-28T09:47:00.818Z,1003.87
2017-07-28T09:47:57.086Z,1003.83
2017-07-28T09:48:53.359Z,1003.98
2017-07-28T09:49:49.625Z,1003.86
2017-07-28T09:50:45.890Z,1003.93
2017-07-28T09:51:42.139Z,1004.04
2017-07-28T09:52:38.393Z,1003.93
2017-07-28T09:53:34.630Z,1003.98
2017-07-28T09:54:30.871Z,1003.88
2017-07-28T09:55:27.105Z,1003.93
2017-07-28T09:56:34.814Z,1003.88
2017-07-28T09:57:32.640Z,1003.94
2017-07-28T09:58:29.408Z,1003.98
2017-07-28T09:59:30.723Z,1003.95
2017-07-28T10:00:27.634Z,1003.91
2017-07-28T10:01:24.195Z,1003.95
2017-07-28T10:02:20.451Z,1003.94
2017-07-28T10:03:16.710Z,1003.95
2017-07-28T10:04:12.934Z,1003.92
2017-07-28T10:05:09.183Z,1003.89
2017-07-28T10:06:05.432Z,1003.85
2017-07-28T10:07:01.683Z,1003.99
2017-07-28T10:07:57.946Z,1003.77
2017-07-28T10:08:54.195Z,1003.79
2017-07-28T10:09:50.439Z,1003.81
2017-07-28T10:10:46.679Z,1003.81
2017-07-28T10:11:42.930Z,1003.76
2017-07-28T10:12:39.174Z,1003.83
2017-07-28T10:13:35.435Z,1003.86
2017-07-28T10:14:31.678Z,1003.88
2017-07-28T10:15:27.926Z,1003.78
2017-07-28T10:16:24.167Z,1003.81
2017-07-28T10:17:20.415Z,1003.88
2017-07-28T10:18:17.457Z,1003.87
2017-07-28T10:22:33.911Z,1003.90
2017-07-28T10:23:30.173Z,1003.95
2017-07-28T10:24:26.510Z,1003.92
2017-07-28T10:25:22.747Z,1003.87
2017-07-28T10:26:18.989Z,1003.96
2017-07-28T10:27:15.227Z,1003.97
2017-07-28T10:28:11.465Z,1003.92
2017-07-28T10:29:07.705Z,1003.97
2017-07-28T10:30:03.940Z,1003.92
2017-07-28T10:31:00.190Z,1003.93
2017-07-28T10:31:56.427Z,1004.00
2017-07-28T10:32:52.657Z,1003.92
2017-07-28T10:33:48.919Z,1003.96
2017-07-28T10:34:45.158Z,1003.97
2017-07-28T10:35:41.394Z,1004.07
2017-07-28T10:36:37.647Z,1003.98
2017-07-28T10:37:33.883Z,1003.97
2017-07-28T10:38:30.149Z,1003.91
2017-07-28T10:39:26.412Z,1003.90
2017-07-28T10:40:22.653Z,1003.99
2017-07-28T10:41:18.898Z,1003.94
2017-07-28T10:42:15.141Z,1003.97
2017-07-28T10:43:11.379Z,1003.98
2017-07-28T10:44:07.638Z,1003.94
2017-07-28T10:45:03.894Z,1003.84
2017-07-28T10:46:00.135Z,1003.83
2017-07-28T10:46:56.372Z,1003.83
2017-07-28T10:47:52.610Z,1003.93
2017-07-28T10:48:48.850Z,1003.84
2017-07-28T10:49:45.114Z,1003.84
2017-07-28T10:50:41.351Z,1003.93
2017-07-28T10:51:37.582Z,1003.84
2017-07-28T10:52:33.823Z,1003.92
2017-07-28T10:53:30.071Z,1003.89
2017-07-28T10:54:26.338Z,1003.99
2017-07-28T10:55:22.599Z,1003.86
2017-07-28T10:56:18.842Z,1003.95
2017-07-28T10:57:15.078Z,1003.92
2017-07-28T10:58:11.314Z,1003.92
2017-07-28T10:59:07.550Z,1003.95
2017-07-28T11:00:03.814Z,1003.93
2017-07-28T11:01:00.055Z,1003.83
2017-07-28T11:01:56.306Z,1003.89
2017-07-28T11:02:52.563Z,1003.93
2017-07-28T11:03:49.275Z,1003.91
2017-07-28T11:04:45.551Z,1003.89
2017-07-28T11:05:41.798Z,1003.92
2017-07-28T11:06:38.042Z,1003.90
2017-07-28T11:07:34.309Z,1003.93
2017-07-28T11:08:30.558Z,1003.94
2017-07-28T11:09:26.807Z,1003.99
2017-07-28T11:10:23.066Z,1004.02
2017-07-28T11:11:19.310Z,1003.92
2017-07-28T11:12:15.560Z,1003.99
2017-07-28T11:13:11.799Z,1003.89
2017-07-28T11:14:08.053Z,1004.04
2017-07-28T11:15:04.320Z,1004.01
2017-07-28T11:16:00.562Z,1003.98
2017-07-28T11:16:56.803Z,1003.99
2017-07-28T11:17:53.054Z,1004.03
2017-07-28T11:18:49.331Z,1003.99
2017-07-28T11:19:45.598Z,1004.00
2017-07-28T11:20:41.872Z,1004.04
2017-07-28T11:21:38.130Z,1003.95
2017-07-28T11:22:34.387Z,1003.99
2017-07-28T11:23:30.633Z,1003.97
2017-07-28T11:24:26.889Z,1004.11
2017-07-28T11:25:23.202Z,1004.01
2017-07-28T11:26:19.439Z,1004.10
2017-07-28T11:27:15.683Z,1004.06
2017-07-28T11:28:11.925Z,1004.12
2017-07-28T11:29:08.176Z,1004.06
2017-07-28T11:30:04.422Z,1004.00
2017-07-28T11:31:00.695Z,1004.09
2017-07-28T11:31:56.948Z,1004.03
2017-07-28T11:32:53.186Z,1004.09
2017-07-28T11:33:49.430Z,1004.02
2017-07-28T11:34:45.691Z,1004.08
2017-07-28T11:35:42.024Z,1004.07
2017-07-28T11:36:38.268Z,1004.09
2017-07-28T11:37:34.522Z,1004.18
2017-07-28T11:38:30.763Z,1004.19
2017-07-28T11:39:27.015Z,1004.19
2017-07-28T11:40:23.304Z,1004.13
2017-07-28T11:41:19.563Z,1004.09
2017-07-28T11:42:15.865Z,1004.10
2017-07-28T11:43:12.190Z,1004.15
2017-07-28T11:44:08.458Z,1004.15
2017-07-28T11:45:04.733Z,1004.20
2017-07-28T11:46:00.974Z,1004.18
2017-07-28T11:46:57.215Z,1004.16
2017-07-28T11:47:53.468Z,1004.12
2017-07-28T11:48:49.723Z,1004.22
2017-07-28T11:49:46.026Z,1004.17
2017-07-28T11:50:42.294Z,1004.09
2017-07-28T11:51:38.558Z,1004.10
2017-07-28T11:52:34.803Z,1004.22
2017-07-28T11:53:31.054Z,1004.10
2017-07-28T11:54:27.306Z,1004.19
2017-07-28T11:55:23.538Z,1004.07
2017-07-28T11:56:19.804Z,1004.02
2017-07-28T11:57:16.054Z,1004.10
2017-07-28T11:58:12.299Z,1003.99
2017-07-28T11:59:08.544Z,1004.03
2017-07-28T12:00:04.798Z,1004.03
2017-07-28T12:01:01.070Z,1004.02
2017-07-28T12:01:57.322Z,1004.00
2017-07-28T12:02:53.567Z,1004.12
2017-07-28T12:03:49.799Z,1004.08
2017-07-28T12:04:46.049Z,1004.13
2017-07-28T12:05:42.351Z,1004.17
2017-07-28T12:06:38.627Z,1004.20
2017-07-28T12:07:34.928Z,1004.16
2017-07-28T12:08:31.226Z,1004.16
2017-07-28T12:09:27.471Z,1004.23
2017-07-28T12:10:23.759Z,1004.16
2017-07-28T12:11:20.089Z,1004.19
2017-07-28T12:12:16.466Z,1004.12
2017-07-28T12:13:12.986Z,1004.12
2017-07-28T12:14:09.286Z,1004.19
2017-07-28T12:15:05.587Z,1004.24
2017-07-28T12:16:01.852Z,1004.09
2017-07-28T12:16:58.126Z,1004.03
2017-07-28T12:17:54.361Z,1004.11
2017-07-28T12:18:50.619Z,1004.09
2017-07-28T12:19:46.874Z,1004.06
2017-07-28T12:20:43.123Z,1004.12
2017-07-28T12:21:39.399Z,1004.08
2017-07-28T12:22:35.634Z,1004.13
2017-07-28T12:23:31.890Z,1004.07
2017-07-28T12:24:28.135Z,1004.03
2017-07-28T12:25:24.375Z,1003.96
2017-07-28T12:26:20.614Z,1004.02
2017-07-28T12:27:16.888Z,1004.06
2017-07-28T12:28:13.191Z,1004.09
2017-07-28T12:29:09.453Z,1004.14
2017-07-28T12:30:05.707Z,1004.09
2017-07-28T12:31:01.952Z,1004.09
2017-07-28T12:31:58.227Z,1004.12
2017-07-28T12:32:54.493Z,1004.08
2017-07-28T12:33:50.773Z,1004.09
2017-07-28T12:34:47.026Z,1004.09
2017-07-28T12:35:43.274Z,1004.11
2017-07-28T12:36:39.519Z,1004.07
2017-07-28T12:37:35.778Z,1004.09
2017-07-28T12:38:32.062Z,1004.06
2017-07-28T12:39:28.342Z,1004.03
2017-07-28T12:40:24.671Z,1004.00
2017-07-28T12:41:20.919Z,1004.15
2017-07-28T12:42:17.194Z,1004.06
2017-07-28T12:43:13.433Z,1004.04
2017-07-28T12:44:09.666Z,1004.03
2017-07-28T12:45:07.803Z,1003.98
2017-07-28T12:46:04.092Z,1003.98
2017-07-28T12:47:00.389Z,1003.95
2017-07-28T12:47:56.667Z,1004.02
2017-07-28T12:48:52.914Z,1004.10
2017-07-28T12:49:49.159Z,1004.15
2017-07-28T12:50:45.423Z,1004.19
2017-07-28T12:51:41.683Z,1004.16
2017-07-28T12:52:37.942Z,1004.17
2017-07-28T12:53:34.187Z,1004.08
2017-07-28T12:54:30.454Z,1004.21
2017-07-28T12:55:26.698Z,1004.20
2017-07-28T12:56:22.954Z,1004.17
2017-07-28T12:57:19.195Z,1004.17
2017-07-28T12:58:15.455Z,1004.16
2017-07-28T12:59:11.698Z,1004.09
2017-07-28T13:00:07.977Z,1004.10
2017-07-28T13:01:04.207Z,1004.08
2017-07-28T13:02:00.457Z,1004.16
2017-07-28T13:02:56.723Z,1004.17
2017-07-28T13:03:52.971Z,1004.07
2017-07-28T13:04:49.215Z,1004.07
2017-07-28T13:05:45.462Z,1004.21
2017-07-28T13:06:41.751Z,1004.07
2017-07-28T13:07:37.987Z,1004.13
2017-07-28T13:08:34.243Z,1004.11
2017-07-28T13:09:30.479Z,1004.05
2017-07-28T13:10:26.715Z,1004.09
2017-07-28T13:11:22.971Z,1004.06
2017-07-28T13:12:19.222Z,1004.13
2017-07-28T13:13:15.603Z,1004.09
2017-07-28T13:14:11.847Z,1004.22
2017-07-28T13:15:08.086Z,1004.16
2017-07-28T13:16:04.330Z,1004.09
2017-07-28T13:17:00.586Z,1004.03
2017-07-28T13:17:56.852Z,1004.07
2017-07-28T13:18:53.112Z,1004.07
2017-07-28T13:19:49.367Z,1004.08
2017-07-28T13:20:45.745Z,1004.09
2017-07-28T13:21:41.987Z,1004.01
2017-07-28T13:22:38.235Z,1004.07
2017-07-28T13:23:34.503Z,1004.07
2017-07-28T13:24:30.806Z,1003.93
2017-07-28T13:25:27.085Z,1004.00
2017-07-28T13:26:23.400Z,1004.00
2017-07-28T13:27:19.693Z,1003.94
2017-07-28T13:28:15.942Z,1004.02
2017-07-28T13:29:12.204Z,1004.07
2017-07-28T13:30:08.438Z,1004.03
2017-07-28T13:31:04.684Z,1004.03
2017-07-28T13:32:00.971Z,1004.09
2017-07-28T13:32:57.222Z,1004.08
2017-07-28T13:33:54.511Z,1004.09
2017-07-28T13:34:50.819Z,1004.04
2017-07-28T13:35:47.090Z,1004.06
2017-07-28T13:36:43.390Z,1004.08
2017-07-28T13:37:39.673Z,1004.20
2017-07-28T13:38:36.018Z,1004.09
2017-07-28T13:39:32.283Z,1004.08
2017-07-28T13:40:28.573Z,1004.08
2017-07-28T13:41:24.866Z,1004.06
2017-07-28T13:42:21.162Z,1004.03
2017-07-28T13:43:17.406Z,1004.04
2017-07-28T13:44:13.733Z,1003.98
2017-07-28T13:45:09.987Z,1004.11
2017-07-28T13:46:06.434Z,1004.04
2017-07-28T13:47:07.395Z,1004.00
2017-07-28T13:48:04.638Z,1004.12
2017-07-28T13:49:00.899Z,1004.05
2017-07-28T13:49:57.156Z,1004.03
2017-07-28T13:50:53.501Z,1003.96
2017-07-28T13:51:49.838Z,1003.97
2017-07-28T13:52:47.100Z,1003.92
2017-07-28T13:53:43.351Z,1003.99
2017-07-28T13:54:39.619Z,1003.97
2017-07-28T13:55:35.867Z,1004.04
2017-07-28T13:56:32.131Z,1004.01
2017-07-28T13:57:28.399Z,1004.17
2017-07-28T13:58:24.675Z,1004.08
2017-07-28T13:59:21.123Z,1003.95
2017-07-28T14:00:17.359Z,1003.99
2017-07-28T14:01:13.674Z,1004.01
2017-07-28T14:02:09.934Z,1004.00
2017-07-28T14:03:06.162Z,1004.01
2017-07-28T14:04:02.506Z,1004.00
2017-07-28T14:04:58.763Z,1004.06
2017-07-28T14:05:55.006Z,1004.16
2017-07-28T14:06:51.533Z,1004.13
2017-07-28T14:07:47.766Z,1004.00
2017-07-28T14:08:44.031Z,1004.02
2017-07-28T14:09:40.277Z,1004.08
2017-07-28T14:10:36.683Z,1004.14
2017-07-28T14:11:32.967Z,1004.12
2017-07-28T14:12:29.243Z,1004.11
2017-07-28T14:13:25.483Z,1004.10
2017-07-28T14:14:21.721Z,1004.01
2017-07-28T14:15:17.991Z,1004.17
2017-07-28T14:16:14.280Z,1004.16
2017-07-28T14:17:10.583Z,1004.08
2017-07-28T14:18:06.834Z,1004.19
2017-07-28T14:19:03.079Z,1004.17
2017-07-28T14:19:59.318Z,1004.19
2017-07-28T14:20:56.585Z,1004.13
2017-07-28T14:21:53.755Z,1004.10
2017-07-28T14:22:49.995Z,1004.31
2017-07-28T14:23:46.262Z,1004.16
2017-07-28T14:24:42.503Z,1004.21
2017-07-28T14:25:38.766Z,1004.14
2017-07-28T14:26:34.998Z,1004.15
2017-07-28T14:27:31.668Z,1004.13
2017-07-28T14:28:31.954Z,1004.13
2017-07-28T14:29:28.195Z,1004.13
2017-07-28T14:30:24.462Z,1004.17
2017-07-28T14:31:20.742Z,1004.12
2017-07-28T14:32:17.339Z,1004.09
2017-07-28T14:33:13.579Z,1004.11
2017-07-28T14:34:09.831Z,1004.03
2017-07-28T14:35:06.082Z,1004.18
2017-07-28T14:36:02.393Z,1004.20
2017-07-28T14:36:58.683Z,1004.16
2017-07-28T14:37:54.926Z,1004.24
2017-07-28T14:38:52.183Z,1004.17
2017-07-28T14:39:48.435Z,1004.19
2017-07-28T14:40:44.683Z,1004.17
2017-07-28T14:41:40.974Z,1004.17
2017-07-28T14:42:37.226Z,1004.23
2017-07-28T14:43:33.474Z,1004.09
2017-07-28T14:44:29.719Z,1003.98
2017-07-28T14:45:25.975Z,1004.11
2017-07-28T14:46:22.255Z,1004.06
2017-07-28T14:47:19.103Z,1004.04
2017-07-28T14:48:16.353Z,1004.15
2017-07-28T14:49:12.718Z,1004.12
2017-07-28T14:50:08.977Z,1004.06
2017-07-28T14:51:05.306Z,1004.12
2017-07-28T14:52:01.549Z,1004.13
2017-07-28T14:52:57.808Z,1004.17
2017-07-28T14:53:54.049Z,1004.23
2017-07-28T14:54:50.289Z,1004.17
2017-07-28T14:55:46.543Z,1004.17
2017-07-28T14:56:42.823Z,1004.26
2017-07-28T14:57:39.066Z,1004.15
2017-07-28T14:58:35.322Z,1004.17
2017-07-28T14:59:31.597Z,1004.22
2017-07-28T15:00:27.855Z,1004.23
2017-07-28T15:01:24.102Z,1004.25
2017-07-28T15:02:20.358Z,1004.26
2017-07-28T15:03:16.581Z,1004.32
2017-07-28T15:04:12.832Z,1004.18
2017-07-28T15:05:09.075Z,1004.29
2017-07-28T15:06:05.334Z,1004.30
2017-07-28T15:07:01.594Z,1004.26
2017-07-28T15:07:57.850Z,1004.26
2017-07-28T15:08:54.083Z,1004.21
2017-07-28T15:09:50.449Z,1004.22
2017-07-28T15:10:46.972Z,1004.26
2017-07-28T15:11:43.498Z,1004.21
2017-07-28T15:12:40.126Z,1004.20
2017-07-28T15:14:52.966Z,1004.23
2017-07-28T15:15:49.215Z,1004.16
2017-07-28T15:16:45.459Z,1004.18
2017-07-28T15:17:42.678Z,1004.23
2017-07-28T15:18:38.927Z,1004.16